createdAt,value
2024-03-01T00:00:17.439Z,-1.13
2024-03-01T00:01:17.569Z,-1.13
2024-03-01T00:02:17.412Z,-1.16
2024-03-01T00:03:17.371Z,-1.15
2024-03-01T00:04:17.398Z,-1.13
2024-03-01T00:05:17.388Z,-1.12
2024-03-01T00:06:17.348Z,-1.09
2024-03-01T00:07:18.327Z,-1.07
2024-03-01T00:08:17.336Z,-1.05
2024-03-01T00:09:17.329Z,-1.05
2024-03-01T00:10:49.139Z,-1.05
2024-03-01T00:11:17.302Z,-1.07
2024-03-01T00:12:17.297Z,-1.09
2024-03-01T00:13:18.005Z,-1.13
2024-03-01T00:14:17.341Z,-1.12
2024-03-01T00:15:17.264Z,-1.10
2024-03-01T00:16:17.337Z,-1.09
2024-03-01T00:17:18.052Z,-1.10
2024-03-01T00:18:17.199Z,-1.12
2024-03-01T00:19:17.253Z,-1.12
2024-03-01T00:20:17.229Z,-1.12
2024-03-01T00:21:17.180Z,-1.10
2024-03-01T00:22:17.877Z,-1.10
2024-03-01T00:23:17.171Z,-1.12
2024-03-01T00:24:17.380Z,-1.13
2024-03-01T00:25:17.169Z,-1.13
2024-03-01T00:26:17.112Z,-1.16
2024-03-01T00:27:17.909Z,-1.16
2024-03-01T00:28:18.115Z,-1.16
2024-03-01T00:29:17.113Z,-1.17
2024-03-01T00:30:17.102Z,-1.19
2024-03-01T00:31:17.118Z,-1.22
2024-03-01T00:32:17.946Z,-1.23
2024-03-01T00:33:17.084Z,-1.23
2024-03-01T00:34:17.100Z,-1.23
2024-03-01T00:35:17.021Z,-1.25
2024-03-01T00:36:16.999Z,-1.23
2024-03-01T00:37:17.095Z,-1.25
2024-03-01T00:38:16.993Z,-1.27
2024-03-01T00:39:17.015Z,-1.27
2024-03-01T00:40:17.014Z,-1.28
2024-03-01T00:41:16.955Z,-1.27
2024-03-01T00:42:17.207Z,-1.30
2024-03-01T00:43:16.958Z,-1.30
2024-03-01T00:44:16.903Z,-1.31
2024-03-01T00:45:31.181Z,-1.33
2024-03-01T00:46:16.918Z,-1.33
2024-03-01T00:47:16.917Z,-1.33
2024-03-01T00:48:17.712Z,-1.35
2024-03-01T00:49:17.703Z,-1.33
2024-03-01T00:50:16.903Z,-1.30
2024-03-01T00:51:16.843Z,-1.31
2024-03-01T00:52:17.582Z,-1.30
2024-03-01T00:53:23.581Z,-1.30
2024-03-01T00:54:31.345Z,-1.28
2024-03-01T00:55:16.816Z,-1.28
2024-03-01T00:56:16.776Z,-1.27
2024-03-01T00:57:16.816Z,-1.28
2024-03-01T00:58:16.859Z,-1.27
2024-03-01T00:59:16.896Z,-1.25
2024-03-01T01:00:31.475Z,-1.23
2024-03-01T01:01:16.802Z,-1.22
2024-03-01T01:02:16.834Z,-1.22
2024-03-01T01:03:16.717Z,-1.17
2024-03-01T01:04:16.723Z,-1.16
2024-03-01T01:05:16.705Z,-1.17
2024-03-01T01:06:16.712Z,-1.17
2024-03-01T01:07:16.801Z,-1.17
2024-03-01T01:08:16.757Z,-1.17
2024-03-01T01:09:17.460Z,-1.17
2024-03-01T01:10:16.986Z,-1.19
2024-03-01T01:11:31.489Z,-1.19
2024-03-01T01:12:16.638Z,-1.20
2024-03-01T01:13:16.676Z,-1.23
2024-03-01T01:14:16.592Z,-1.25
2024-03-01T01:15:16.673Z,-1.27
2024-03-01T01:16:16.684Z,-1.28
2024-03-01T01:17:16.591Z,-1.30
2024-03-01T01:18:16.555Z,-1.31
2024-03-01T01:19:16.641Z,-1.31
2024-03-01T01:20:16.530Z,-1.33
2024-03-01T01:21:16.513Z,-1.33
2024-03-01T01:22:16.549Z,-1.34
2024-03-01T01:23:16.491Z,-1.33
2024-03-01T01:24:16.504Z,-1.34
2024-03-01T01:25:17.229Z,-1.35
2024-03-01T01:26:17.010Z,-1.37
2024-03-01T01:27:16.465Z,-1.35
2024-03-01T01:28:17.270Z,-1.38
2024-03-01T01:29:16.441Z,-1.41
2024-03-01T01:30:17.258Z,-1.40
2024-03-01T01:31:16.628Z,-1.41
2024-03-01T01:32:16.394Z,-1.43
2024-03-01T01:33:16.443Z,-1.40
2024-03-01T01:34:16.369Z,-1.40
2024-03-01T01:35:17.294Z,-1.37
2024-03-01T01:36:16.347Z,-1.38
2024-03-01T01:37:16.366Z,-1.38
2024-03-01T01:38:16.382Z,-1.37
2024-03-01T01:39:16.358Z,-1.34
2024-03-01T01:40:16.348Z,-1.34
2024-03-01T01:41:16.289Z,-1.34
2024-03-01T01:42:25.549Z,-1.35
2024-03-01T01:43:16.281Z,-1.34
2024-03-01T01:44:16.247Z,-1.34
2024-03-01T01:45:16.228Z,-1.34
2024-03-01T01:46:16.266Z,-1.38
2024-03-01T01:47:17.175Z,-1.38
2024-03-01T01:48:16.236Z,-1.38
2024-03-01T01:49:16.239Z,-1.43
2024-03-01T01:50:17.673Z,-1.45
2024-03-01T01:51:37.160Z,-1.46
2024-03-01T01:52:16.210Z,-1.46
2024-03-01T01:53:21.291Z,-1.46
2024-03-01T01:54:17.142Z,-1.46
2024-03-01T01:55:16.159Z,-1.48
2024-03-01T01:56:17.126Z,-1.48
2024-03-01T01:57:16.118Z,-1.46
2024-03-01T01:58:16.127Z,-1.48
2024-03-01T01:59:16.143Z,-1.48
2024-03-01T02:00:16.946Z,-1.46
2024-03-01T02:01:16.093Z,-1.43
2024-03-01T02:02:16.055Z,-1.41
2024-03-01T02:03:16.078Z,-1.38
2024-03-01T02:04:16.031Z,-1.38
2024-03-01T02:06:26.710Z,-1.35
2024-03-01T02:07:26.725Z,-1.38
2024-03-01T02:08:26.687Z,-1.38
2024-03-01T02:09:26.680Z,-1.37
2024-03-01T02:10:26.707Z,-1.38
2024-03-01T02:11:26.659Z,-1.40
2024-03-01T02:12:26.675Z,-1.40
2024-03-01T02:13:26.736Z,-1.38
2024-03-01T02:14:26.916Z,-1.35
2024-03-01T02:15:26.613Z,-1.34
2024-03-01T02:16:26.620Z,-1.31
2024-03-01T02:17:26.602Z,-1.25
2024-03-01T02:18:26.736Z,-1.20
2024-03-01T02:19:26.664Z,-1.16
2024-03-01T02:20:26.545Z,-1.09
2024-03-01T02:21:26.509Z,-1.04
2024-03-01T02:22:26.537Z,-1.01
2024-03-01T02:23:26.489Z,-0.95
2024-03-01T02:24:26.509Z,-0.89
2024-03-01T02:25:26.564Z,-0.83
2024-03-01T02:26:26.481Z,-0.80
2024-03-01T02:27:26.455Z,-0.75
2024-03-01T02:28:26.543Z,-0.70
2024-03-01T02:29:26.520Z,-0.70
2024-03-01T02:30:26.422Z,-0.65
2024-03-01T02:31:26.477Z,-0.61
2024-03-01T02:32:26.424Z,-0.58
2024-03-01T02:33:26.387Z,-0.52
2024-03-01T02:34:26.647Z,-0.46
2024-03-01T02:35:26.440Z,-0.42
2024-03-01T02:36:26.363Z,-0.37
2024-03-01T02:37:26.440Z,-0.31
2024-03-01T02:38:26.338Z,-0.26
2024-03-01T02:39:26.345Z,-0.21
2024-03-01T02:40:26.360Z,-0.16
2024-03-01T02:41:26.293Z,-0.15
2024-03-01T02:42:26.292Z,-0.10
2024-03-01T02:43:26.341Z,-0.07
2024-03-01T02:44:26.268Z,-0.03
2024-03-01T02:45:26.254Z,0.00
2024-03-01T02:46:26.302Z,0.04
2024-03-01T02:47:26.258Z,0.04
2024-03-01T02:48:26.265Z,0.10
2024-03-01T02:49:26.263Z,0.13
2024-03-01T02:50:26.236Z,0.17
2024-03-01T02:51:26.200Z,0.20
2024-03-01T02:52:26.264Z,0.23
2024-03-01T02:53:26.169Z,0.26
2024-03-01T02:54:26.474Z,0.29
2024-03-01T02:55:26.361Z,0.32
2024-03-01T02:56:26.192Z,0.33
2024-03-01T02:57:26.136Z,0.36
2024-03-01T02:58:26.176Z,0.42
2024-03-01T02:59:26.119Z,0.44
2024-03-01T03:00:26.132Z,0.49
2024-03-01T03:01:26.215Z,0.51
2024-03-01T03:02:26.092Z,0.55
2024-03-01T03:03:26.083Z,0.58
2024-03-01T03:04:26.118Z,0.62
2024-03-01T03:05:26.061Z,0.66
2024-03-01T03:06:26.054Z,0.69
2024-03-01T03:07:26.039Z,0.70
2024-03-01T03:08:26.175Z,0.75
2024-03-01T03:09:26.003Z,0.78
2024-03-01T03:10:26.037Z,0.79
2024-03-01T03:11:26.012Z,0.83
2024-03-01T03:12:25.974Z,0.86
2024-03-01T03:13:25.961Z,0.86
2024-03-01T03:14:25.941Z,0.90
2024-03-01T03:15:26.057Z,0.93
2024-03-01T03:16:26.108Z,0.94
2024-03-01T03:17:25.937Z,0.96
2024-03-01T03:18:25.929Z,0.97
2024-03-01T03:19:26.270Z,0.98
2024-03-01T03:20:25.914Z,1.02
2024-03-01T03:21:25.901Z,1.05
2024-03-01T03:22:25.910Z,1.08
2024-03-01T03:23:25.876Z,1.09
2024-03-01T03:24:25.858Z,1.12
2024-03-01T03:25:25.889Z,1.15
2024-03-01T03:26:25.806Z,1.16
2024-03-01T03:27:25.809Z,1.18
2024-03-01T03:28:25.816Z,1.20
2024-03-01T03:29:25.798Z,1.23
2024-03-01T03:30:25.775Z,1.26
2024-03-01T03:31:25.862Z,1.27
2024-03-01T03:32:25.801Z,1.30
2024-03-01T03:33:25.727Z,1.30
2024-03-01T03:34:25.786Z,1.30
2024-03-01T03:35:25.832Z,1.32
2024-03-01T03:36:25.961Z,1.34
2024-03-01T03:37:25.779Z,1.34
2024-03-01T03:38:25.680Z,1.36
2024-03-01T03:39:25.677Z,1.40
2024-03-01T03:40:25.706Z,1.40
2024-03-01T03:41:25.646Z,1.41
2024-03-01T03:42:25.649Z,1.44
2024-03-01T03:43:25.640Z,1.44
2024-03-01T03:44:25.619Z,1.47
2024-03-01T03:45:25.611Z,1.52
2024-03-01T03:46:25.768Z,1.52
2024-03-01T03:47:25.582Z,1.54
2024-03-01T03:48:25.582Z,1.58
2024-03-01T03:49:25.567Z,1.60
2024-03-01T03:50:25.544Z,1.62
2024-03-01T03:51:25.531Z,1.65
2024-03-01T03:52:25.633Z,1.66
2024-03-01T03:53:25.517Z,1.68
2024-03-01T03:54:25.494Z,1.69
2024-03-01T03:55:25.542Z,1.69
2024-03-01T03:56:25.781Z,1.73
2024-03-01T03:57:25.702Z,1.77
2024-03-01T03:58:25.564Z,1.80
2024-03-01T03:59:25.475Z,1.83
2024-03-01T04:00:25.419Z,1.86
2024-03-01T04:01:25.478Z,1.87
2024-03-01T04:02:25.395Z,1.88
2024-03-01T04:03:25.411Z,1.88
2024-03-01T04:04:25.408Z,1.91
2024-03-01T04:05:25.442Z,1.90
2024-03-01T04:06:25.357Z,1.91
2024-03-01T04:07:25.397Z,1.91
2024-03-01T04:08:25.381Z,1.91
2024-03-01T04:09:25.316Z,1.93
2024-03-01T04:10:25.326Z,1.95
2024-03-01T04:11:25.312Z,1.98
2024-03-01T04:12:25.315Z,1.99
2024-03-01T04:13:25.330Z,2.00
2024-03-01T04:14:25.265Z,2.03
2024-03-01T04:15:25.289Z,2.05
2024-03-01T04:16:25.743Z,2.05
2024-03-01T04:17:25.324Z,2.06
2024-03-01T04:18:25.226Z,2.07
2024-03-01T04:19:25.229Z,2.10
2024-03-01T04:20:25.244Z,2.14
2024-03-01T04:21:25.184Z,2.14
2024-03-01T04:22:25.286Z,2.14
2024-03-01T04:23:25.173Z,2.16
2024-03-01T04:24:25.182Z,2.16
2024-03-01T04:25:25.223Z,2.18
2024-03-01T04:26:25.127Z,2.18
2024-03-01T04:27:25.113Z,2.20
2024-03-01T04:28:25.150Z,2.20
2024-03-01T04:29:25.102Z,2.20
2024-03-01T04:30:25.096Z,2.21
2024-03-01T04:31:25.114Z,2.21
2024-03-01T04:32:25.083Z,2.21
2024-03-01T04:33:25.085Z,2.21
2024-03-01T04:34:25.079Z,2.23
2024-03-01T04:35:25.022Z,2.21
2024-03-01T04:36:25.017Z,2.23
2024-03-01T04:37:25.292Z,2.24
2024-03-01T04:38:25.014Z,2.24
2024-03-01T04:39:24.993Z,2.24
2024-03-01T04:40:25.024Z,2.24
2024-03-01T04:41:24.984Z,2.24
2024-03-01T04:42:24.952Z,2.24
2024-03-01T04:43:24.948Z,2.25
2024-03-01T04:44:24.977Z,2.25
2024-03-01T04:45:24.920Z,2.25
2024-03-01T04:46:25.002Z,2.25
2024-03-01T04:47:24.976Z,2.25
2024-03-01T04:48:24.896Z,2.28
2024-03-01T04:49:24.942Z,2.30
2024-03-01T04:50:24.872Z,2.31
2024-03-01T04:51:24.890Z,2.35
2024-03-01T04:52:24.904Z,2.35
2024-03-01T04:53:24.855Z,2.38
2024-03-01T04:54:24.824Z,2.41
2024-03-01T04:55:24.900Z,2.41
2024-03-01T04:56:24.821Z,2.41
2024-03-01T04:57:25.507Z,2.41
2024-03-01T04:58:25.019Z,2.42
2024-03-01T04:59:24.794Z,2.43
2024-03-01T05:00:25.070Z,2.46
2024-03-01T05:01:24.958Z,2.48
2024-03-01T05:02:24.747Z,2.52
2024-03-01T05:03:24.725Z,2.52
2024-03-01T05:04:24.772Z,2.54
2024-03-01T05:05:24.695Z,2.56
2024-03-01T05:06:24.716Z,2.56
2024-03-01T05:07:24.786Z,2.56
2024-03-01T05:08:24.730Z,2.56
2024-03-01T05:09:24.660Z,2.57
2024-03-01T05:10:24.801Z,2.59
2024-03-01T05:11:24.712Z,2.60
2024-03-01T05:12:24.629Z,2.59
2024-03-01T05:13:24.660Z,2.59
2024-03-01T05:14:24.595Z,2.60
2024-03-01T05:15:24.603Z,2.61
2024-03-01T05:16:24.694Z,2.63
2024-03-01T05:17:24.574Z,2.64
2024-03-01T05:18:24.638Z,2.66
2024-03-01T05:19:24.619Z,2.66
2024-03-01T05:20:24.581Z,2.67
2024-03-01T05:21:24.533Z,2.69
2024-03-01T05:22:24.619Z,2.71
2024-03-01T05:23:24.524Z,2.71
2024-03-01T05:24:24.550Z,2.74
2024-03-01T05:25:24.508Z,2.77
2024-03-01T05:26:24.498Z,2.77
2024-03-01T05:27:24.505Z,2.79
2024-03-01T05:28:24.455Z,2.81
2024-03-01T05:29:24.471Z,2.82
2024-03-01T05:30:33.066Z,2.84
2024-03-01T05:31:30.390Z,2.85
2024-03-01T05:32:25.634Z,2.87
2024-03-01T05:33:24.436Z,2.87
2024-03-01T05:34:24.408Z,2.89
2024-03-01T05:35:24.380Z,2.85
2024-03-01T05:36:24.416Z,2.87
2024-03-01T05:37:24.387Z,2.87
2024-03-01T05:38:24.381Z,2.89
2024-03-01T05:39:24.474Z,2.87
2024-03-01T05:40:24.372Z,2.89
2024-03-01T05:41:24.315Z,2.90
2024-03-01T05:42:26.434Z,2.93
2024-03-01T05:43:24.904Z,2.95
2024-03-01T05:44:24.292Z,2.96
2024-03-01T05:45:24.330Z,2.97
2024-03-01T05:46:24.261Z,2.97
2024-03-01T05:47:24.261Z,3.00
2024-03-01T05:48:24.226Z,3.00
2024-03-01T05:49:24.451Z,2.99
2024-03-01T05:50:24.212Z,3.02
2024-03-01T05:51:24.212Z,3.03
2024-03-01T05:52:24.280Z,3.05
2024-03-01T05:53:24.165Z,3.05
2024-03-01T05:54:24.171Z,3.06
2024-03-01T05:55:24.251Z,3.11
2024-03-01T05:56:24.139Z,3.13
2024-03-01T05:57:24.152Z,3.14
2024-03-01T05:58:24.369Z,3.14
2024-03-01T05:59:26.094Z,3.15
2024-03-01T06:00:24.181Z,3.18
2024-03-01T06:01:24.221Z,3.21
2024-03-01T06:02:24.075Z,3.29
2024-03-01T06:03:24.092Z,3.36
2024-03-01T06:04:24.069Z,3.48
2024-03-01T06:05:24.059Z,3.58
2024-03-01T06:06:24.056Z,3.62
2024-03-01T06:07:24.062Z,3.62
2024-03-01T06:08:24.070Z,3.65
2024-03-01T06:09:24.002Z,3.70
2024-03-01T06:10:24.205Z,3.86
2024-03-01T06:11:24.062Z,3.97
2024-03-01T06:12:23.971Z,4.05
2024-03-01T06:13:24.021Z,4.18
2024-03-01T06:14:23.946Z,4.24
2024-03-01T06:15:23.936Z,4.29
2024-03-01T06:16:23.976Z,4.32
2024-03-01T06:17:23.929Z,4.41
2024-03-01T06:18:23.901Z,4.48
2024-03-01T06:19:24.164Z,4.59
2024-03-01T06:20:24.146Z,4.66
2024-03-01T06:21:24.331Z,4.73
2024-03-01T06:22:23.891Z,4.78
2024-03-01T06:23:23.834Z,4.85
2024-03-01T06:24:23.830Z,4.89
2024-03-01T06:25:23.969Z,4.96
2024-03-01T06:26:23.809Z,4.99
2024-03-01T06:27:23.837Z,4.99
2024-03-01T06:28:23.825Z,5.02
2024-03-01T06:29:23.807Z,5.07
2024-03-01T06:30:23.786Z,5.13
2024-03-01T06:31:23.869Z,5.20
2024-03-01T06:32:23.778Z,5.24
2024-03-01T06:33:23.842Z,5.28
2024-03-01T06:34:23.754Z,5.28
2024-03-01T06:35:23.790Z,5.31
2024-03-01T06:36:23.706Z,5.35
2024-03-01T06:37:23.740Z,5.36
2024-03-01T06:38:23.736Z,5.39
2024-03-01T06:39:24.043Z,5.43
2024-03-01T06:40:24.678Z,5.45
2024-03-01T06:41:23.663Z,5.49
2024-03-01T06:42:23.633Z,5.51
2024-03-01T06:43:24.219Z,5.53
2024-03-01T06:44:23.641Z,5.54
2024-03-01T06:45:23.624Z,5.57
2024-03-01T06:46:23.591Z,5.56
2024-03-01T06:47:23.678Z,5.58
2024-03-01T06:48:23.586Z,5.63
2024-03-01T06:49:23.634Z,5.63
2024-03-01T06:50:23.583Z,5.64
2024-03-01T06:51:23.543Z,5.67
2024-03-01T06:52:23.809Z,5.68
2024-03-01T06:53:23.507Z,5.75
2024-03-01T06:54:23.531Z,5.76
2024-03-01T06:55:23.522Z,5.76
2024-03-01T06:56:23.489Z,5.79
2024-03-01T06:57:23.498Z,5.83
2024-03-01T06:58:23.482Z,5.85
2024-03-01T06:59:23.494Z,5.86
2024-03-01T07:00:23.586Z,5.90
2024-03-01T07:01:23.461Z,5.93
2024-03-01T07:02:23.432Z,5.94
2024-03-01T07:03:23.390Z,5.96
2024-03-01T07:04:23.420Z,5.97
2024-03-01T07:05:23.364Z,5.96
2024-03-01T07:06:23.367Z,5.99
2024-03-01T07:07:23.359Z,5.97
2024-03-01T07:08:23.336Z,5.94
2024-03-01T07:09:23.382Z,5.96
2024-03-01T07:10:23.357Z,5.96
2024-03-01T07:11:23.324Z,5.96
2024-03-01T07:12:23.276Z,5.96
2024-03-01T07:13:23.506Z,5.97
2024-03-01T07:14:23.300Z,5.97
2024-03-01T07:15:23.253Z,5.99
2024-03-01T07:16:23.307Z,6.00
2024-03-01T07:17:23.301Z,6.01
2024-03-01T07:18:23.223Z,6.03
2024-03-01T07:19:23.213Z,6.04
2024-03-01T07:20:23.261Z,6.08
2024-03-01T07:21:23.444Z,6.09
2024-03-01T07:22:23.615Z,6.12
2024-03-01T07:23:23.203Z,6.09
2024-03-01T07:24:23.243Z,6.11
2024-03-01T07:25:23.257Z,6.11
2024-03-01T07:26:23.113Z,6.11
2024-03-01T07:27:23.125Z,6.12
2024-03-01T07:28:23.160Z,6.15
2024-03-01T07:29:23.099Z,6.15
2024-03-01T07:30:23.096Z,6.15
2024-03-01T07:31:23.113Z,6.17
2024-03-01T07:32:23.603Z,6.18
2024-03-01T07:33:23.071Z,6.21
2024-03-01T07:34:23.244Z,6.22
2024-03-01T07:35:23.050Z,6.27
2024-03-01T07:36:23.059Z,6.27
2024-03-01T07:37:23.068Z,6.30
2024-03-01T07:38:22.981Z,6.33
2024-03-01T07:39:22.995Z,6.34
2024-03-01T07:40:23.397Z,6.37
2024-03-01T07:41:23.368Z,6.38
2024-03-01T07:42:22.952Z,6.41
2024-03-01T07:43:23.079Z,6.48
2024-03-01T07:44:22.955Z,6.49
2024-03-01T07:45:23.045Z,6.55
2024-03-01T07:46:22.964Z,6.59
2024-03-01T07:47:22.944Z,6.64
2024-03-01T07:48:22.879Z,6.67
2024-03-01T07:49:22.906Z,6.66
2024-03-01T07:50:22.902Z,6.69
2024-03-01T07:51:22.851Z,6.70
2024-03-01T07:52:22.832Z,6.73
2024-03-01T07:53:22.849Z,6.79
2024-03-01T07:54:22.830Z,6.81
2024-03-01T07:55:22.907Z,6.85
2024-03-01T07:56:22.779Z,6.87
2024-03-01T07:57:22.855Z,6.92
2024-03-01T07:58:22.958Z,6.94
2024-03-01T07:59:22.812Z,6.98
2024-03-01T08:00:22.790Z,7.03
2024-03-01T08:01:22.865Z,7.06
2024-03-01T08:02:22.808Z,7.10
2024-03-01T08:03:22.825Z,7.12
2024-03-01T08:04:22.813Z,7.15
2024-03-01T08:05:22.724Z,7.17
2024-03-01T08:06:22.687Z,7.27
2024-03-01T08:07:22.704Z,7.31
2024-03-01T08:08:22.674Z,7.34
2024-03-01T08:09:22.665Z,7.40
2024-03-01T08:10:22.763Z,7.48
2024-03-01T08:11:22.660Z,7.53
2024-03-01T08:12:23.554Z,7.50
2024-03-01T08:13:22.605Z,7.52
2024-03-01T08:14:22.618Z,7.58
2024-03-01T08:15:22.588Z,7.67
2024-03-01T08:16:22.593Z,7.68
2024-03-01T08:17:22.567Z,7.72
2024-03-01T08:18:22.609Z,7.77
2024-03-01T08:19:22.605Z,7.80
2024-03-01T08:20:22.556Z,7.85
2024-03-01T08:21:22.587Z,7.87
2024-03-01T08:22:22.598Z,7.92
2024-03-01T08:23:22.726Z,7.95
2024-03-01T08:24:22.493Z,7.98
2024-03-01T08:25:22.528Z,8.01
2024-03-01T08:26:22.466Z,8.02
2024-03-01T08:27:22.448Z,8.05
2024-03-01T08:28:22.495Z,8.05
2024-03-01T08:29:22.445Z,8.07
2024-03-01T08:30:22.400Z,8.04
2024-03-01T08:31:22.731Z,8.02
2024-03-01T08:32:22.400Z,8.02
2024-03-01T08:33:22.439Z,8.01
2024-03-01T08:34:22.479Z,8.00
2024-03-01T08:35:22.361Z,8.00
2024-03-01T08:36:22.329Z,7.95
2024-03-01T08:37:22.435Z,7.95
2024-03-01T08:38:22.329Z,7.92
2024-03-01T08:39:22.317Z,7.89
2024-03-01T08:40:22.379Z,7.87
2024-03-01T08:41:22.277Z,7.83
2024-03-01T08:42:22.657Z,7.82
2024-03-01T08:43:22.299Z,7.83
2024-03-01T08:44:22.318Z,7.83
2024-03-01T08:45:22.266Z,7.79
2024-03-01T08:46:22.266Z,7.79
2024-03-01T08:47:22.215Z,7.75
2024-03-01T08:48:22.227Z,7.74
2024-03-01T08:49:22.257Z,7.77
2024-03-01T08:50:22.207Z,7.79
2024-03-01T08:51:22.186Z,7.82
2024-03-01T08:52:22.262Z,7.83
2024-03-01T08:53:22.154Z,7.85
2024-03-01T08:54:22.169Z,7.82
2024-03-01T08:55:22.195Z,7.82
2024-03-01T08:56:22.320Z,7.80
2024-03-01T08:57:22.131Z,7.79
2024-03-01T08:58:22.132Z,7.80
2024-03-01T08:59:22.096Z,7.80
2024-03-01T09:00:22.131Z,7.80
2024-03-01T09:01:22.127Z,7.80
2024-03-01T09:02:22.380Z,7.79
2024-03-01T09:03:22.525Z,7.79
2024-03-01T09:04:22.359Z,7.79
2024-03-01T09:05:22.017Z,7.77
2024-03-01T09:06:22.002Z,7.77
2024-03-01T09:07:22.061Z,7.79
2024-03-01T09:08:22.001Z,7.80
2024-03-01T09:09:22.042Z,7.80
2024-03-01T09:10:22.015Z,7.79
2024-03-01T09:11:22.010Z,7.77
2024-03-01T09:12:23.333Z,7.77
2024-03-01T09:13:22.007Z,7.75
2024-03-01T09:14:21.927Z,7.75
2024-03-01T09:15:21.914Z,7.77
2024-03-01T09:16:21.988Z,7.77
2024-03-01T09:17:21.883Z,7.77
2024-03-01T09:18:21.905Z,7.77
2024-03-01T09:19:21.940Z,7.75
2024-03-01T09:20:21.888Z,7.75
2024-03-01T09:21:21.849Z,7.75
2024-03-01T09:22:22.040Z,7.75
2024-03-01T09:23:22.437Z,7.74
2024-03-01T09:24:21.910Z,7.69
2024-03-01T09:25:21.825Z,7.69
2024-03-01T09:26:21.806Z,7.69
2024-03-01T09:27:21.821Z,7.68
2024-03-01T09:28:22.069Z,7.69
2024-03-01T09:29:21.756Z,7.71
2024-03-01T09:30:21.779Z,7.71
2024-03-01T09:31:21.809Z,7.69
2024-03-01T09:32:21.760Z,7.68
2024-03-01T09:33:21.778Z,7.68
2024-03-01T09:34:21.786Z,7.69
2024-03-01T09:35:21.703Z,7.74
2024-03-01T09:36:21.717Z,7.77
2024-03-01T09:37:21.767Z,7.83
2024-03-01T09:38:21.791Z,7.87
2024-03-01T09:39:21.637Z,7.87
2024-03-01T09:40:21.726Z,7.90
2024-03-01T09:41:21.610Z,7.90
2024-03-01T09:42:21.635Z,7.90
2024-03-01T09:43:21.785Z,7.93
2024-03-01T09:44:21.651Z,7.93
2024-03-01T09:45:21.583Z,7.98
2024-03-01T09:46:21.602Z,7.97
2024-03-01T09:47:21.565Z,7.98
2024-03-01T09:48:21.581Z,8.01
2024-03-01T09:49:21.561Z,7.98
2024-03-01T09:50:21.532Z,7.93
2024-03-01T09:51:21.498Z,7.90
2024-03-01T09:52:21.781Z,7.90
2024-03-01T09:53:21.480Z,7.89
2024-03-01T09:54:21.474Z,7.87
2024-03-01T09:55:21.559Z,7.87
2024-03-01T09:56:21.482Z,7.87
2024-03-01T09:57:21.741Z,7.89
2024-03-01T09:58:21.488Z,7.87
2024-03-01T09:59:21.429Z,7.92
2024-03-01T10:00:21.416Z,7.93
2024-03-01T10:01:21.510Z,7.92
2024-03-01T10:02:21.430Z,7.90
2024-03-01T10:03:21.371Z,7.89
2024-03-01T10:04:21.846Z,7.87
2024-03-01T10:05:23.518Z,7.87
2024-03-01T10:06:21.408Z,7.87
2024-03-01T10:07:21.437Z,7.89
2024-03-01T10:08:21.376Z,7.90
2024-03-01T10:09:21.306Z,7.90
2024-03-01T10:10:21.397Z,7.90
2024-03-01T10:11:21.340Z,7.89
2024-03-01T10:12:21.663Z,7.86
2024-03-01T10:13:21.360Z,7.89
2024-03-01T10:14:21.256Z,7.90
2024-03-01T10:15:21.254Z,7.93
2024-03-01T10:16:21.263Z,7.93
2024-03-01T10:17:21.782Z,7.93
2024-03-01T10:18:21.204Z,7.93
2024-03-01T10:19:21.255Z,7.90
2024-03-01T10:20:21.223Z,7.89
2024-03-01T10:21:21.169Z,7.86
2024-03-01T10:22:21.311Z,7.83
2024-03-01T10:23:21.165Z,7.83
2024-03-01T10:24:21.362Z,7.83
2024-03-01T10:25:21.282Z,7.82
2024-03-01T10:26:21.152Z,7.83
2024-03-01T10:27:21.100Z,7.82
2024-03-01T10:28:21.125Z,7.79
2024-03-01T10:29:21.122Z,7.79
2024-03-01T10:30:21.125Z,7.77
2024-03-01T10:31:21.091Z,7.77
2024-03-01T10:32:21.060Z,7.80
2024-03-01T10:33:21.110Z,7.80
2024-03-01T10:34:21.180Z,7.80
2024-03-01T10:35:21.043Z,7.82
2024-03-01T10:36:21.035Z,7.82
2024-03-01T10:37:21.070Z,7.82
2024-03-01T10:38:21.013Z,7.86
2024-03-01T10:39:20.988Z,7.90
2024-03-01T10:40:21.026Z,7.95
2024-03-01T10:41:27.286Z,8.01
2024-03-01T10:42:21.974Z,8.08
2024-03-01T10:43:21.044Z,8.18
2024-03-01T10:44:20.916Z,8.23
2024-03-01T10:45:20.968Z,8.28
2024-03-01T10:46:21.038Z,8.30
2024-03-01T10:47:21.145Z,8.40
2024-03-01T10:48:20.932Z,8.50
2024-03-01T10:49:20.893Z,8.59
2024-03-01T10:50:20.896Z,8.63
2024-03-01T10:51:20.872Z,8.68
2024-03-01T10:52:20.983Z,8.79
2024-03-01T10:53:20.862Z,8.89
2024-03-01T10:54:20.859Z,8.99
2024-03-01T10:55:20.851Z,9.05
2024-03-01T10:56:21.132Z,9.17
2024-03-01T10:57:20.798Z,9.24
2024-03-01T10:58:20.814Z,9.33
2024-03-01T10:59:20.753Z,9.42
2024-03-01T11:00:20.787Z,9.51
2024-03-01T11:01:20.830Z,9.60
2024-03-01T11:02:20.800Z,9.68
2024-03-01T11:03:20.736Z,9.76
2024-03-01T11:04:20.696Z,9.76
2024-03-01T11:05:20.689Z,9.87
2024-03-01T11:06:21.046Z,9.97
2024-03-01T11:07:21.105Z,10.07
2024-03-01T11:08:20.672Z,10.14
2024-03-01T11:09:20.652Z,10.20
2024-03-01T11:10:20.728Z,10.22
2024-03-01T11:11:20.641Z,10.15
2024-03-01T11:12:20.635Z,10.15
2024-03-01T11:13:20.646Z,10.12
2024-03-01T11:14:20.604Z,10.14
2024-03-01T11:15:20.574Z,10.14
2024-03-01T11:16:20.580Z,10.11
2024-03-01T11:17:20.590Z,10.08
2024-03-01T11:18:20.607Z,10.05
2024-03-01T11:19:20.591Z,10.07
2024-03-01T11:20:20.741Z,10.02
2024-03-01T11:21:20.505Z,9.99
2024-03-01T11:22:20.643Z,9.91
2024-03-01T11:23:20.494Z,9.87
2024-03-01T11:24:20.478Z,9.81
2024-03-01T11:25:20.545Z,9.75
2024-03-01T11:26:20.888Z,9.74
2024-03-01T11:27:20.626Z,9.71
2024-03-01T11:28:20.488Z,9.60
2024-03-01T11:29:20.469Z,9.54
2024-03-01T11:30:20.493Z,9.54
2024-03-01T11:31:20.441Z,9.50
2024-03-01T11:32:21.105Z,9.46
2024-03-01T11:33:20.456Z,9.46
2024-03-01T11:34:20.402Z,9.46
2024-03-01T11:35:20.438Z,9.46
2024-03-01T11:36:20.384Z,9.42
2024-03-01T11:37:20.406Z,9.38
2024-03-01T11:38:20.328Z,9.33
2024-03-01T11:39:20.312Z,9.29
2024-03-01T11:40:20.316Z,9.28
2024-03-01T11:41:20.292Z,9.26
2024-03-01T11:42:27.056Z,9.21
2024-03-01T11:43:21.283Z,9.20
2024-03-01T11:44:20.251Z,9.18
2024-03-01T11:45:20.272Z,9.17
2024-03-01T11:46:20.604Z,9.13
2024-03-01T11:47:20.251Z,9.05
2024-03-01T11:48:20.205Z,9.02
2024-03-01T11:49:20.246Z,9.02
2024-03-01T11:50:20.216Z,9.02
2024-03-01T11:51:20.159Z,8.95
2024-03-01T11:52:20.246Z,8.92
2024-03-01T11:53:20.174Z,8.89
2024-03-01T11:54:20.144Z,8.92
2024-03-01T11:55:20.244Z,8.91
2024-03-01T11:56:20.148Z,8.92
2024-03-01T11:57:20.137Z,8.92
2024-03-01T11:58:20.146Z,8.89
2024-03-01T11:59:20.178Z,8.87
2024-03-01T12:00:20.093Z,8.86
2024-03-01T12:01:20.115Z,8.87
2024-03-01T12:02:20.176Z,8.87
2024-03-01T12:03:20.054Z,8.91
2024-03-01T12:04:20.073Z,8.91
2024-03-01T12:05:20.131Z,8.94
2024-03-01T12:06:20.017Z,8.95
2024-03-01T12:07:20.435Z,8.92
2024-03-01T12:08:20.518Z,8.95
2024-03-01T12:09:20.045Z,8.98
2024-03-01T12:10:20.000Z,8.99
2024-03-01T12:11:19.983Z,9.10
2024-03-01T12:12:19.926Z,9.18
2024-03-01T12:13:19.973Z,9.32
2024-03-01T12:14:19.933Z,9.40
2024-03-01T12:15:19.888Z,9.53
2024-03-01T12:16:19.911Z,9.61
2024-03-01T12:17:19.866Z,9.65
2024-03-01T12:18:19.883Z,9.64
2024-03-01T12:19:20.063Z,9.66
2024-03-01T12:20:19.964Z,9.72
2024-03-01T12:21:19.842Z,9.79
2024-03-01T12:22:19.865Z,9.83
2024-03-01T12:23:19.871Z,9.79
2024-03-01T12:24:19.853Z,9.79
2024-03-01T12:25:19.883Z,9.79
2024-03-01T12:26:19.781Z,9.75
2024-03-01T12:27:19.876Z,9.75
2024-03-01T12:28:19.846Z,9.74
2024-03-01T12:29:19.751Z,9.71
2024-03-01T12:30:19.757Z,9.72
2024-03-01T12:31:19.774Z,9.72
2024-03-01T12:32:19.722Z,9.76
2024-03-01T12:33:19.719Z,9.76
2024-03-01T12:34:19.686Z,9.79
2024-03-01T12:35:19.776Z,9.81
2024-03-01T12:36:21.108Z,9.84
2024-03-01T12:37:19.694Z,9.87
2024-03-01T12:38:19.636Z,9.87
2024-03-01T12:39:19.778Z,9.91
2024-03-01T12:40:19.869Z,9.96
2024-03-01T12:41:19.620Z,9.97
2024-03-01T12:42:19.585Z,9.99
2024-03-01T12:43:24.455Z,10.04
2024-03-01T12:44:20.584Z,10.04
2024-03-01T12:45:19.648Z,10.02
2024-03-01T12:46:19.634Z,9.89
2024-03-01T12:47:19.581Z,9.81
2024-03-01T12:48:19.543Z,9.78
2024-03-01T12:49:19.598Z,9.79
2024-03-01T12:50:19.515Z,9.86
2024-03-01T12:51:19.503Z,9.87
2024-03-01T12:52:19.604Z,9.91
2024-03-01T12:53:19.481Z,9.99
2024-03-01T12:54:19.470Z,10.01
2024-03-01T12:55:19.547Z,10.04
2024-03-01T12:56:19.451Z,10.08
2024-03-01T12:57:19.430Z,10.14
2024-03-01T12:58:19.427Z,10.14
2024-03-01T12:59:19.406Z,10.17
2024-03-01T13:00:19.395Z,10.30
2024-03-01T13:01:19.444Z,10.41
2024-03-01T13:02:19.421Z,10.55
2024-03-01T13:03:19.359Z,10.64
2024-03-01T13:04:19.407Z,10.64
2024-03-01T13:05:19.374Z,10.61
2024-03-01T13:06:19.313Z,10.66
2024-03-01T13:07:19.321Z,10.76
2024-03-01T13:08:19.405Z,10.85
2024-03-01T13:09:19.495Z,10.92
2024-03-01T13:10:19.395Z,10.99
2024-03-01T13:11:19.493Z,10.96
2024-03-01T13:12:19.331Z,10.86